createdAt,value
2018-12-31T00:01:37.747Z,18.90
2018-12-31T00:04:08.388Z,19.60
2018-12-31T00:06:38.873Z,22.50
2018-12-31T00:09:09.509Z,28.42
2018-12-31T00:11:39.989Z,23.20
2018-12-31T00:14:10.477Z,16.35
2018-12-31T00:16:41.026Z,22.77
2018-12-31T00:19:11.496Z,30.20
2018-12-31T00:21:41.983Z,33.23
2018-12-31T00:24:12.522Z,22.17
2018-12-31T00:26:43.033Z,35.33
2018-12-31T00:29:13.530Z,28.83
2018-12-31T00:31:44.070Z,27.70
2018-12-31T00:34:14.554Z,20.07
2018-12-31T00:36:45.125Z,20.57
2018-12-31T00:39:15.788Z,30.95
2018-12-31T00:41:46.370Z,27.77
2018-12-31T00:44:16.916Z,28.15
2018-12-31T00:46:47.459Z,22.42
2018-12-31T00:49:18.058Z,20.12
2018-12-31T00:51:48.627Z,21.65
2018-12-31T00:54:19.215Z,22.67
2018-12-31T00:56:49.730Z,37.05
2018-12-31T00:59:20.270Z,28.73
2018-12-31T01:01:50.839Z,24.00
2018-12-31T01:04:21.348Z,28.25
2018-12-31T01:06:51.857Z,19.70
2018-12-31T01:09:22.488Z,33.55
2018-12-31T01:11:53.069Z,28.40
2018-12-31T01:14:23.651Z,29.85
2018-12-31T01:16:54.280Z,28.62
2018-12-31T01:19:24.815Z,31.60
2018-12-31T01:21:55.344Z,22.75
2018-12-31T01:24:25.963Z,37.88
2018-12-31T01:26:56.517Z,28.27
2018-12-31T01:29:27.066Z,26.07
2018-12-31T01:31:57.601Z,29.35
2018-12-31T01:34:28.263Z,29.00
2018-12-31T01:36:58.773Z,34.60
2018-12-31T01:39:29.320Z,21.27
2018-12-31T01:41:59.851Z,32.30
2018-12-31T01:44:30.364Z,25.77
2018-12-31T01:47:00.940Z,25.90
2018-12-31T01:49:31.508Z,19.65
2018-12-31T01:52:02.034Z,17.77
2018-12-31T01:54:32.640Z,26.30
2018-12-31T01:57:03.247Z,28.33
2018-12-31T01:59:33.901Z,26.42
2018-12-31T02:02:04.523Z,33.20
2018-12-31T02:04:35.129Z,31.93
2018-12-31T02:07:05.658Z,23.50
2018-12-31T02:09:36.380Z,20.43
2018-12-31T02:12:06.901Z,25.82
2018-12-31T02:14:37.457Z,37.28
2018-12-31T02:17:08.092Z,22.60
2018-12-31T02:19:38.774Z,27.62
2018-12-31T02:22:09.369Z,30.10
2018-12-31T02:24:39.980Z,28.12
2018-12-31T02:27:10.620Z,24.35
2018-12-31T02:29:41.173Z,27.32
2018-12-31T02:32:11.717Z,25.50
2018-12-31T02:34:42.320Z,27.80
2018-12-31T02:37:13.144Z,22.85
2018-12-31T02:39:43.739Z,22.90
2018-12-31T02:42:14.244Z,29.45
2018-12-31T02:44:44.753Z,28.40
2018-12-31T02:47:15.333Z,27.20
2018-12-31T02:49:45.950Z,36.63
2018-12-31T02:52:16.564Z,25.27
2018-12-31T02:54:47.377Z,36.73
2018-12-31T02:57:17.956Z,30.23
2018-12-31T02:59:48.467Z,31.60
2018-12-31T03:02:19.054Z,36.20
2018-12-31T03:04:49.610Z,33.58
2018-12-31T03:07:20.137Z,32.93
2018-12-31T03:09:50.719Z,39.42
2018-12-31T03:12:21.217Z,29.23
2018-12-31T03:14:51.763Z,36.50
2018-12-31T03:17:22.304Z,43.40
2018-12-31T03:19:52.790Z,42.70
2018-12-31T03:22:23.316Z,38.90
2018-12-31T03:24:54.007Z,27.70
2018-12-31T03:27:24.515Z,28.60
2018-12-31T03:29:55.040Z,29.30
2018-12-31T03:32:25.651Z,30.60
2018-12-31T03:34:56.190Z,30.80
2018-12-31T03:37:26.675Z,32.03
2018-12-31T03:39:57.272Z,32.53
2018-12-31T03:42:27.805Z,29.25
2018-12-31T03:44:58.316Z,28.98
2018-12-31T03:47:28.857Z,28.07
2018-12-31T03:49:59.392Z,24.52
2018-12-31T03:52:29.891Z,23.42
2018-12-31T03:55:00.470Z,31.95
2018-12-31T03:57:31.016Z,25.62
2018-12-31T04:00:01.558Z,27.32
2018-12-31T04:02:32.119Z,33.45
2018-12-31T04:05:02.651Z,26.70
2018-12-31T04:07:33.212Z,31.82
2018-12-31T04:10:03.807Z,28.02
2018-12-31T04:12:34.340Z,28.05
2018-12-31T04:15:04.919Z,28.02
2018-12-31T04:17:35.497Z,40.90
2018-12-31T04:20:06.201Z,26.77
2018-12-31T04:22:40.039Z,23.70
2018-12-31T04:25:10.577Z,26.95
2018-12-31T04:27:41.151Z,23.47
2018-12-31T04:30:11.797Z,31.82
2018-12-31T04:32:42.288Z,24.72
2018-12-31T04:35:12.849Z,29.70
2018-12-31T04:37:43.427Z,32.70
2018-12-31T04:40:13.965Z,46.88
2018-12-31T04:42:44.458Z,45.40
2018-12-31T04:45:15.008Z,22.60
2018-12-31T04:47:45.597Z,23.22
2018-12-31T04:50:16.253Z,27.82
2018-12-31T04:52:46.833Z,22.98
2018-12-31T04:55:17.358Z,24.77
2018-12-31T04:57:47.866Z,25.65
2018-12-31T05:00:18.476Z,21.30
2018-12-31T05:02:49.155Z,27.13
2018-12-31T05:05:19.711Z,18.73
2018-12-31T05:07:50.334Z,20.62
2018-12-31T05:10:20.911Z,20.88
2018-12-31T05:12:51.475Z,25.27
2018-12-31T05:15:22.259Z,18.17
2018-12-31T05:17:52.902Z,22.75
2018-12-31T05:20:23.483Z,24.57
2018-12-31T05:22:54.937Z,28.62
2018-12-31T05:25:25.572Z,27.90
2018-12-31T05:27:56.192Z,22.37
2018-12-31T05:30:26.784Z,26.00
2018-12-31T05:32:57.496Z,22.35
2018-12-31T05:35:28.181Z,20.45
2018-12-31T05:37:58.976Z,23.15
2018-12-31T05:40:29.630Z,21.60
2018-12-31T05:43:00.416Z,26.00
2018-12-31T05:45:31.187Z,21.17
2018-12-31T05:48:01.839Z,23.02
2018-12-31T05:50:32.503Z,27.10
2018-12-31T05:53:03.151Z,35.68
2018-12-31T05:55:33.792Z,24.30
2018-12-31T05:58:04.858Z,22.25
2018-12-31T06:00:36.261Z,26.05
2018-12-31T06:03:06.853Z,22.20
2018-12-31T06:05:37.487Z,25.02
2018-12-31T06:08:08.096Z,26.97
2018-12-31T06:10:38.651Z,22.32
2018-12-31T06:13:09.249Z,28.65
2018-12-31T06:15:39.904Z,28.25
2018-12-31T06:18:10.500Z,24.00
2018-12-31T06:20:41.120Z,27.60
2018-12-31T06:23:11.966Z,23.87
2018-12-31T06:25:42.488Z,24.07
2018-12-31T06:28:13.169Z,28.67
2018-12-31T06:30:43.956Z,26.95
2018-12-31T06:33:14.635Z,25.93
2018-12-31T06:35:45.267Z,30.40
2018-12-31T06:38:15.780Z,24.70
2018-12-31T06:40:46.262Z,24.92
2018-12-31T06:43:16.739Z,23.65
2018-12-31T06:45:47.271Z,25.57
2018-12-31T06:48:17.746Z,33.70
2018-12-31T06:50:48.239Z,26.02
2018-12-31T06:53:19.017Z,25.15
2018-12-31T06:55:49.512Z,26.55
2018-12-31T06:58:19.966Z,27.70
2018-12-31T07:00:50.524Z,30.85
2018-12-31T07:03:20.979Z,26.83
2018-12-31T07:05:51.457Z,25.88
2018-12-31T07:08:21.981Z,31.02
2018-12-31T07:10:52.467Z,29.02
2018-12-31T07:13:23.007Z,25.65
2018-12-31T07:15:53.534Z,24.67
2018-12-31T07:18:24.012Z,35.88
2018-12-31T07:20:54.455Z,31.80
2018-12-31T07:23:24.998Z,25.48
2018-12-31T07:25:55.656Z,27.87
2018-12-31T07:28:26.133Z,27.70
2018-12-31T07:30:56.657Z,27.52
2018-12-31T07:33:27.165Z,26.50
2018-12-31T07:35:57.669Z,27.73
2018-12-31T07:38:28.179Z,26.48
2018-12-31T07:40:58.704Z,25.70
2018-12-31T07:43:29.045Z,18.43
2018-12-31T07:45:59.575Z,26.20
2018-12-31T07:48:29.994Z,19.10
2018-12-31T07:51:00.452Z,24.70
2018-12-31T07:53:31.028Z,27.90
2018-12-31T07:56:01.440Z,25.20
2018-12-31T07:58:31.938Z,22.55
2018-12-31T08:01:02.484Z,24.18
2018-12-31T08:03:32.930Z,22.02
2018-12-31T08:06:03.449Z,28.10
2018-12-31T08:08:33.956Z,22.98
2018-12-31T08:11:04.468Z,22.00
2018-12-31T08:13:34.998Z,31.10
2018-12-31T08:16:05.595Z,24.70
2018-12-31T08:18:36.098Z,18.73
2018-12-31T08:21:06.581Z,23.98
2018-12-31T08:23:37.113Z,18.27
2018-12-31T08:26:09.220Z,18.80
2018-12-31T08:28:39.671Z,23.30
2018-12-31T08:31:10.218Z,28.85
2018-12-31T08:33:40.702Z,30.37
2018-12-31T08:36:11.199Z,26.50
2018-12-31T08:38:41.722Z,26.70
2018-12-31T08:41:12.196Z,21.42
2018-12-31T08:43:42.694Z,29.30
2018-12-31T08:46:13.288Z,25.40
2018-12-31T08:48:43.779Z,20.00
2018-12-31T08:51:14.261Z,31.52
2018-12-31T08:53:44.829Z,27.02
2018-12-31T08:56:15.319Z,20.07
2018-12-31T08:58:45.797Z,22.10
2018-12-31T09:01:16.314Z,19.75
2018-12-31T09:03:46.770Z,20.30
2018-12-31T09:06:17.275Z,21.65
2018-12-31T09:08:47.803Z,23.20
2018-12-31T09:11:18.292Z,24.92
2018-12-31T09:13:48.808Z,24.23
2018-12-31T09:16:19.426Z,19.73
2018-12-31T09:18:49.892Z,26.27
2018-12-31T09:21:20.357Z,29.37
2018-12-31T09:23:50.951Z,20.32
2018-12-31T09:26:21.421Z,23.32
2018-12-31T09:28:51.897Z,22.05
2018-12-31T09:31:22.420Z,28.15
2018-12-31T09:33:52.945Z,24.07
2018-12-31T09:36:23.429Z,26.02
2018-12-31T09:38:53.972Z,21.52
2018-12-31T09:41:24.390Z,19.57
2018-12-31T09:43:54.895Z,16.15
2018-12-31T09:46:25.438Z,15.95
2018-12-31T09:48:55.891Z,22.40
2018-12-31T09:51:26.392Z,17.98
2018-12-31T09:53:56.856Z,17.53
2018-12-31T09:56:27.329Z,15.30
2018-12-31T09:58:57.845Z,18.20
2018-12-31T10:01:28.442Z,17.23
2018-12-31T10:03:58.841Z,12.50
2018-12-31T10:06:29.311Z,18.87
2018-12-31T10:08:59.897Z,17.45
2018-12-31T10:11:30.304Z,15.20
2018-12-31T10:14:00.692Z,13.68
2018-12-31T10:16:31.258Z,14.20
2018-12-31T10:19:01.708Z,15.58
2018-12-31T10:21:32.214Z,16.93
2018-12-31T10:24:02.771Z,14.03
2018-12-31T10:26:33.252Z,23.87
2018-12-31T10:29:03.776Z,14.18
2018-12-31T10:31:34.348Z,15.13
2018-12-31T10:34:04.896Z,12.88
2018-12-31T10:36:35.385Z,10.50
2018-12-31T10:39:07.851Z,12.25
2018-12-31T10:41:38.359Z,11.00
2018-12-31T10:44:08.853Z,6.67
2018-12-31T10:46:39.354Z,10.13
2018-12-31T10:49:09.861Z,12.43
2018-12-31T10:51:40.399Z,10.23
2018-12-31T10:54:10.933Z,7.47
2018-12-31T10:56:43.136Z,10.53
2018-12-31T10:59:13.546Z,9.15
2018-12-31T11:01:44.131Z,7.43
2018-12-31T11:04:14.599Z,11.70
2018-12-31T11:06:45.083Z,13.83
2018-12-31T11:09:15.603Z,11.48
2018-12-31T11:11:46.094Z,11.08
2018-12-31T11:14:16.574Z,9.43
2018-12-31T11:16:47.178Z,9.53
2018-12-31T11:19:17.661Z,11.80
2018-12-31T11:21:48.153Z,13.08
2018-12-31T11:24:18.760Z,11.60
2018-12-31T11:26:49.211Z,8.00
2018-12-31T11:29:19.695Z,9.55
2018-12-31T11:31:50.207Z,8.70
2018-12-31T11:34:20.813Z,10.00
2018-12-31T11:36:51.240Z,8.20
2018-12-31T11:39:21.797Z,7.05
2018-12-31T11:41:52.279Z,9.80
2018-12-31T11:44:22.773Z,11.63
2018-12-31T11:46:53.284Z,10.90
2018-12-31T11:49:23.684Z,6.00
2018-12-31T11:51:54.170Z,13.30
2018-12-31T11:54:24.678Z,4.00
2018-12-31T11:56:55.168Z,7.20
2018-12-31T11:59:25.671Z,12.40
2018-12-31T12:01:56.187Z,7.85
2018-12-31T12:04:26.729Z,10.35
2018-12-31T12:06:57.230Z,7.03
2018-12-31T12:09:28.183Z,6.53
2018-12-31T12:11:58.672Z,6.10
2018-12-31T12:14:29.255Z,7.87
2018-12-31T12:16:59.729Z,13.60
2018-12-31T12:19:30.195Z,6.03
2018-12-31T12:22:00.799Z,10.35
2018-12-31T12:24:31.297Z,7.05
2018-12-31T12:27:02.065Z,8.08
2018-12-31T12:29:32.679Z,6.62
2018-12-31T12:32:03.232Z,5.85
2018-12-31T12:34:33.704Z,7.10
2018-12-31T22:02:56.846Z,5.47
2018-12-31T22:05:22.557Z,9.10
2018-12-31T22:07:53.197Z,9.00
2018-12-31T22:10:23.779Z,7.90
2018-12-31T22:12:54.537Z,12.28
2018-12-31T22:15:25.104Z,19.55
2018-12-31T22:17:55.723Z,11.90
2018-12-31T22:20:26.290Z,10.53
2018-12-31T22:22:56.878Z,12.07
2018-12-31T22:25:27.419Z,10.82
2018-12-31T22:27:57.961Z,9.20
2018-12-31T22:30:28.553Z,11.95
2018-12-31T22:32:59.084Z,11.45
2018-12-31T22:35:29.961Z,11.20
2018-12-31T22:38:00.593Z,10.70
2018-12-31T22:40:31.141Z,14.97
2018-12-31T22:43:02.230Z,12.65
2018-12-31T22:45:32.804Z,12.10
2018-12-31T22:48:03.362Z,13.53
2018-12-31T22:50:33.920Z,17.48
2018-12-31T22:53:04.495Z,14.03
2018-12-31T22:55:35.059Z,10.20
2018-12-31T22:58:05.686Z,10.70
2018-12-31T23:00:37.414Z,13.83
2018-12-31T23:03:08.010Z,46.85
2018-12-31T23:05:39.958Z,55.27
2018-12-31T23:08:10.545Z,86.42
2018-12-31T23:10:41.184Z,213.90
2018-12-31T23:13:11.700Z,212.53
2018-12-31T23:15:42.292Z,113.25
2018-12-31T23:18:12.909Z,137.27
2018-12-31T23:20:43.833Z,98.52
2018-12-31T23:23:14.640Z,102.07
2018-12-31T23:25:45.186Z,125.18
2018-12-31T23:28:15.758Z,98.82
2018-12-31T23:30:46.329Z,85.75
2018-12-31T23:33:17.003Z,60.08
2018-12-31T23:35:47.591Z,61.95
2018-12-31T23:38:18.388Z,56.30
2018-12-31T23:40:48.961Z,52.40
2018-12-31T23:43:19.607Z,57.50
2018-12-31T23:45:50.793Z,55.55
2018-12-31T23:48:21.404Z,50.95
2018-12-31T23:50:52.008Z,60.78
2018-12-31T23:53:22.629Z,65.40
2018-12-31T23:55:53.214Z,43.85
2018-12-31T23:58:23.764Z,40.78
